createdAt,value
2023-01-17T00:00:16.362Z,-1.69
2023-01-17T00:02:44.033Z,-1.83
2023-01-17T00:05:29.958Z,-1.87
2023-01-17T00:08:15.226Z,-1.73
2023-01-17T00:10:42.744Z,-1.79
2023-01-17T00:13:12.573Z,-2.06
2023-01-17T00:15:42.142Z,-1.86
2023-01-17T00:18:08.867Z,-1.85
2023-01-17T00:20:54.184Z,-1.71
2023-01-17T00:23:47.595Z,-1.77
2023-01-17T00:26:20.837Z,-1.87
2023-01-17T00:28:47.374Z,-1.97
2023-01-17T00:31:20.636Z,-2.24
2023-01-17T00:33:49.385Z,-1.95
2023-01-17T00:36:18.449Z,-2.26
2023-01-17T00:38:44.986Z,-1.84
2023-01-17T00:41:14.452Z,-1.28
2023-01-17T00:44:02.840Z,-1.30
2023-01-17T00:46:48.300Z,-1.06
2023-01-17T00:49:41.859Z,-1.15
2023-01-17T00:52:32.446Z,-1.20
2023-01-17T00:55:17.708Z,-1.21
2023-01-17T00:58:03.205Z,-1.42
2023-01-17T01:00:48.520Z,-1.32
2023-01-17T01:03:36.840Z,-1.54
2023-01-17T01:06:29.723Z,-1.52
2023-01-17T01:09:18.046Z,-1.96
2023-01-17T01:12:08.496Z,-1.87
2023-01-17T01:15:01.788Z,-2.02
2023-01-17T01:17:47.155Z,-2.06
2023-01-17T01:20:32.341Z,-1.99
2023-01-17T01:23:20.383Z,-2.21
2023-01-17T01:26:13.362Z,-2.07
2023-01-17T01:29:06.366Z,-2.21
2023-01-17T01:31:56.973Z,-2.30
2023-01-17T01:34:30.277Z,-2.60
2023-01-17T01:36:59.916Z,-2.57
2023-01-17T01:39:26.788Z,-2.52
2023-01-17T01:41:58.877Z,-2.41
2023-01-17T01:44:48.096Z,-2.38
2023-01-17T01:47:32.115Z,-2.52
2023-01-17T01:50:02.036Z,-2.55
2023-01-17T01:52:39.577Z,-2.62
2023-01-17T01:55:29.214Z,-2.49
2023-01-17T01:58:04.139Z,-2.59
2023-01-17T02:00:35.951Z,-2.62
2023-01-17T02:03:07.630Z,-2.67
2023-01-17T02:05:36.849Z,-2.67
2023-01-17T02:08:08.095Z,-2.36
2023-01-17T02:10:41.999Z,-2.71
2023-01-17T02:13:10.081Z,-2.95
2023-01-17T02:15:56.050Z,-2.53
2023-01-17T02:18:40.607Z,-2.48
2023-01-17T02:21:45.405Z,-2.52
2023-01-17T02:24:20.629Z,-2.57
2023-01-17T02:27:23.089Z,-2.59
2023-01-17T02:30:11.525Z,-2.71
2023-01-17T02:32:53.521Z,-2.68
2023-01-17T02:35:42.862Z,-2.69
2023-01-17T02:38:33.383Z,-2.69
2023-01-17T02:41:19.777Z,-3.14
2023-01-17T02:43:51.463Z,-3.28
2023-01-17T02:46:18.657Z,-3.16
2023-01-17T02:48:48.837Z,-3.07
2023-01-17T02:51:41.832Z,-2.76
2023-01-17T02:54:29.786Z,-2.77
2023-01-17T02:57:11.054Z,-2.81
2023-01-17T02:59:53.087Z,-2.97
2023-01-17T03:02:53.077Z,-3.13
2023-01-17T03:05:25.847Z,-2.84
2023-01-17T03:07:56.608Z,-3.24
2023-01-17T03:10:24.452Z,-3.08
2023-01-17T03:12:57.888Z,-3.27
2023-01-17T03:15:24.702Z,-3.24
2023-01-17T03:17:59.285Z,-3.09
2023-01-17T03:20:25.995Z,-3.31
2023-01-17T03:22:52.868Z,-3.31
2023-01-17T03:25:19.582Z,-3.11
2023-01-17T03:27:48.910Z,-3.24
2023-01-17T03:30:16.133Z,-3.08
2023-01-17T03:32:42.819Z,-3.09
2023-01-17T03:35:09.664Z,-3.18
2023-01-17T03:37:36.436Z,-3.23
2023-01-17T03:40:03.466Z,-3.08
2023-01-17T03:42:30.064Z,-3.06
2023-01-17T03:44:56.778Z,-3.11
2023-01-17T03:47:23.288Z,-3.04
2023-01-17T03:49:49.752Z,-3.12
2023-01-17T03:52:18.695Z,-2.95
2023-01-17T03:54:45.413Z,-3.13
2023-01-17T03:57:12.103Z,-3.03
2023-01-17T03:59:38.682Z,-3.16
2023-01-17T04:02:05.521Z,-3.17
2023-01-17T04:04:32.317Z,-3.22
2023-01-17T04:06:58.966Z,-2.95
2023-01-17T04:09:25.563Z,-2.96
2023-01-17T04:11:53.429Z,-3.09
2023-01-17T04:14:20.120Z,-3.14
2023-01-17T04:16:46.799Z,-2.83
2023-01-17T04:19:14.053Z,-2.88
2023-01-17T04:21:40.747Z,-2.82
2023-01-17T04:24:07.598Z,-2.98
2023-01-17T04:26:34.194Z,-2.96
2023-01-17T04:29:00.803Z,-3.00
2023-01-17T04:31:27.850Z,-2.92
2023-01-17T04:33:54.369Z,-3.02
2023-01-17T04:36:21.044Z,-2.96
2023-01-17T04:38:47.787Z,-2.90
2023-01-17T04:41:14.544Z,-3.15
2023-01-17T04:43:41.066Z,-3.01
2023-01-17T04:46:10.299Z,-2.88
2023-01-17T04:48:37.255Z,-3.08
2023-01-17T04:51:05.339Z,-3.02
2023-01-17T04:53:32.326Z,-3.16
2023-01-17T04:55:58.994Z,-3.14
2023-01-17T04:58:25.602Z,-3.17
2023-01-17T05:00:54.980Z,-3.22
2023-01-17T05:03:23.025Z,-3.06
2023-01-17T05:05:50.754Z,-3.18
2023-01-17T05:08:17.474Z,-3.40
2023-01-17T05:10:46.325Z,-3.26
2023-01-17T05:13:13.361Z,-3.23
2023-01-17T05:15:40.374Z,-3.25
2023-01-17T05:18:08.730Z,-3.44
2023-01-17T05:20:36.710Z,-3.24
2023-01-17T05:23:03.469Z,-3.50
2023-01-17T05:25:32.155Z,-3.56
2023-01-17T05:28:02.257Z,-3.68
2023-01-17T05:30:32.777Z,-3.72
2023-01-17T05:32:59.324Z,-3.54
2023-01-17T05:35:29.537Z,-3.62
2023-01-17T05:37:56.477Z,-3.66
2023-01-17T05:40:26.372Z,-3.70
2023-01-17T05:42:55.069Z,-3.61
2023-01-17T05:45:23.093Z,-3.90
2023-01-17T05:47:51.477Z,-3.62
2023-01-17T05:50:21.559Z,-3.71
2023-01-17T05:52:56.761Z,-3.83
2023-01-17T05:55:24.707Z,-3.61
2023-01-17T05:57:51.600Z,-3.64
2023-01-17T06:00:23.234Z,-3.93
2023-01-17T06:02:54.022Z,-4.19
2023-01-17T06:05:21.819Z,-3.79
2023-01-17T06:08:18.104Z,-4.27
2023-01-17T06:11:03.985Z,-4.04
2023-01-17T06:13:33.023Z,-4.13
2023-01-17T06:16:04.528Z,-4.20
2023-01-17T06:22:07.171Z,-3.98
2023-01-17T06:26:18.869Z,-4.17
2023-01-17T06:28:55.296Z,-4.16
2023-01-17T06:31:32.777Z,-4.45
2023-01-17T06:38:17.996Z,-3.80
2023-01-17T06:44:28.436Z,-4.26
2023-01-17T06:47:07.217Z,-4.50
2023-01-17T06:49:50.556Z,-4.50
2023-01-17T06:53:11.018Z,-4.53
2023-01-17T07:00:00.087Z,-3.92
2023-01-17T07:03:36.517Z,-4.04
2023-01-17T07:06:43.381Z,-4.50
2023-01-17T07:09:10.603Z,-4.12
2023-01-17T07:12:10.081Z,-3.91
2023-01-17T07:15:16.073Z,-4.55
2023-01-17T07:21:47.910Z,-4.21
2023-01-17T07:28:51.958Z,-4.35
2023-01-17T07:32:23.056Z,-4.45
2023-01-17T07:36:42.203Z,-4.34
2023-01-17T07:43:56.584Z,-4.49
2023-01-17T07:54:24.887Z,-4.54
2023-01-17T08:00:36.631Z,-4.46
2023-01-17T08:07:11.367Z,-4.19
2023-01-17T08:10:05.214Z,-4.16
2023-01-17T08:13:44.489Z,-3.98
2023-01-17T08:17:17.676Z,-4.24
2023-01-17T08:27:39.534Z,-4.07
2023-01-17T08:33:40.738Z,-4.21
2023-01-17T08:37:57.319Z,-4.06
2023-01-17T08:56:00.130Z,-3.69
2023-01-17T09:05:58.628Z,-3.27
2023-01-17T09:09:02.630Z,-3.38
2023-01-17T09:11:40.953Z,-3.50
2023-01-17T09:17:29.321Z,-3.11
2023-01-17T09:20:06.561Z,-3.11
2023-01-17T09:22:37.721Z,-3.06
2023-01-17T09:25:05.317Z,-2.73
2023-01-17T09:27:34.473Z,-2.80
2023-01-17T09:30:06.641Z,-2.83
2023-01-17T09:33:43.062Z,-2.34
2023-01-17T09:36:22.187Z,-2.72
2023-01-17T09:38:51.094Z,-2.48
2023-01-17T09:45:04.901Z,-2.59
2023-01-17T09:48:17.886Z,-1.95
2023-01-17T09:54:43.457Z,-1.98
2023-01-17T09:57:38.489Z,-1.76
2023-01-17T10:00:46.823Z,-1.68
2023-01-17T10:03:47.999Z,-2.16
2023-01-17T10:06:25.039Z,-1.54
2023-01-17T10:09:04.970Z,-1.64
2023-01-17T10:12:14.428Z,-1.40
2023-01-17T10:15:38.531Z,-1.33
2023-01-17T10:18:29.238Z,-1.26
2023-01-17T10:33:43.381Z,-1.07
2023-01-17T10:36:31.175Z,-0.97
2023-01-17T10:39:12.952Z,-0.95
2023-01-17T10:42:08.224Z,-1.00
2023-01-17T10:49:21.730Z,-0.61
2023-01-17T10:52:20.963Z,-0.89
2023-01-17T10:55:05.396Z,-0.82
2023-01-17T11:00:44.099Z,-0.39
2023-01-17T11:03:15.982Z,-0.37
2023-01-17T11:05:43.607Z,-0.28
2023-01-17T11:08:13.604Z,-0.30
2023-01-17T11:10:54.458Z,-0.23
2023-01-17T11:30:19.868Z,0.34
2023-01-17T11:32:59.841Z,0.30
2023-01-17T11:35:35.439Z,0.23
2023-01-17T11:38:27.373Z,0.27
2023-01-17T11:41:14.246Z,0.60
2023-01-17T11:43:56.483Z,0.58
2023-01-17T11:46:28.433Z,0.47
2023-01-17T11:49:01.678Z,0.69
2023-01-17T11:51:47.456Z,0.88
2023-01-17T11:54:24.135Z,0.80
2023-01-17T11:57:01.710Z,0.60
2023-01-17T11:59:35.322Z,1.03
2023-01-17T12:06:27.240Z,1.23
2023-01-17T12:09:01.021Z,1.29
2023-01-17T12:12:06.487Z,1.11
2023-01-17T12:15:21.950Z,1.40
2023-01-17T12:18:09.167Z,1.32
2023-01-17T12:20:57.421Z,1.49
2023-01-17T12:23:57.621Z,1.45
2023-01-17T12:26:35.899Z,1.55
2023-01-17T12:29:33.059Z,1.63
2023-01-17T12:32:33.887Z,1.68
2023-01-17T12:35:09.299Z,1.56
2023-01-17T12:37:44.123Z,1.48
2023-01-17T12:40:38.081Z,1.69
2023-01-17T12:43:39.765Z,1.61
2023-01-17T12:46:27.359Z,1.89
2023-01-17T12:49:19.456Z,1.95
2023-01-17T12:51:57.840Z,1.81
2023-01-17T12:54:39.792Z,2.14
2023-01-17T12:57:18.841Z,1.84
2023-01-17T13:00:09.590Z,1.98
2023-01-17T13:03:03.235Z,1.79
2023-01-17T13:05:42.442Z,1.94
2023-01-17T13:08:24.615Z,2.25
2023-01-17T13:11:25.652Z,2.30
2023-01-17T13:13:53.498Z,2.21
2023-01-17T13:16:30.227Z,2.12
2023-01-17T13:19:04.356Z,1.96
2023-01-17T13:21:33.699Z,1.92
2023-01-17T13:24:02.339Z,2.39
2023-01-17T13:26:36.566Z,2.42
2023-01-17T13:29:16.035Z,2.23
2023-01-17T13:31:49.339Z,2.30
2023-01-17T13:34:28.186Z,2.27
2023-01-17T13:37:04.758Z,2.50
2023-01-17T13:39:35.574Z,2.36
2023-01-17T13:42:20.959Z,2.52
2023-01-17T13:44:47.832Z,2.12
2023-01-17T13:47:17.443Z,2.38
2023-01-17T13:49:51.678Z,2.51
2023-01-17T13:52:21.331Z,2.50
2023-01-17T13:54:53.655Z,2.50
2023-01-17T13:57:23.307Z,2.46
2023-01-17T13:59:50.553Z,2.21
2023-01-17T14:02:38.728Z,2.43
2023-01-17T14:05:06.841Z,2.41
2023-01-17T14:07:35.842Z,2.15
2023-01-17T14:10:29.846Z,2.07
2023-01-17T14:12:56.868Z,2.17
2023-01-17T14:15:27.164Z,2.29
2023-01-17T14:18:05.882Z,1.96
2023-01-17T14:20:42.574Z,2.10
2023-01-17T14:23:25.288Z,2.06
2023-01-17T14:25:53.244Z,1.91
2023-01-17T14:28:29.776Z,2.21
2023-01-17T14:30:59.095Z,1.91
2023-01-17T14:33:37.516Z,2.07
2023-01-17T14:36:19.560Z,2.16
2023-01-17T14:38:46.231Z,1.95
2023-01-17T14:41:26.660Z,1.98
2023-01-17T14:43:56.806Z,2.01
2023-01-17T14:46:27.817Z,2.11
2023-01-17T14:49:04.066Z,1.90
2023-01-17T14:51:35.349Z,1.78
2023-01-17T14:54:05.656Z,1.91
2023-01-17T14:56:33.204Z,1.71
2023-01-17T14:59:17.455Z,2.04
2023-01-17T15:02:06.311Z,1.84
2023-01-17T15:04:39.348Z,1.91
2023-01-17T15:07:07.591Z,1.72
2023-01-17T15:09:38.076Z,1.66
2023-01-17T15:12:08.486Z,1.84
2023-01-17T15:14:39.213Z,1.93
2023-01-17T15:17:25.077Z,1.86
2023-01-17T15:20:01.496Z,1.72
2023-01-17T15:22:29.901Z,1.57
2023-01-17T15:24:58.721Z,1.65
2023-01-17T15:27:26.273Z,1.56
2023-01-17T15:29:54.212Z,1.50
2023-01-17T15:32:28.066Z,1.54
2023-01-17T15:34:54.905Z,1.50
2023-01-17T15:37:27.373Z,1.69
2023-01-17T15:40:22.141Z,1.50
2023-01-17T15:42:56.711Z,1.40
2023-01-17T15:45:29.068Z,1.51
2023-01-17T15:47:55.972Z,1.38
2023-01-17T15:50:26.721Z,1.32
2023-01-17T15:52:58.175Z,1.41
2023-01-17T15:55:39.290Z,1.31
2023-01-17T15:58:25.517Z,1.19
2023-01-17T16:00:52.219Z,1.23
2023-01-17T16:03:21.880Z,1.34
2023-01-17T16:05:50.116Z,1.19
2023-01-17T16:08:16.742Z,1.12
2023-01-17T16:10:44.740Z,0.99
2023-01-17T16:13:13.741Z,0.94
2023-01-17T16:15:41.675Z,0.93
2023-01-17T16:18:20.490Z,1.02
2023-01-17T16:20:52.030Z,0.64
2023-01-17T16:23:18.800Z,0.75
2023-01-17T16:25:46.341Z,0.91
2023-01-17T16:28:13.198Z,0.52
2023-01-17T16:30:39.832Z,0.75
2023-01-17T16:33:06.729Z,0.64
2023-01-17T16:35:34.889Z,0.60
2023-01-17T16:38:07.576Z,0.59
2023-01-17T16:40:40.529Z,0.76
2023-01-17T16:43:07.723Z,0.60
2023-01-17T16:45:55.996Z,0.69
2023-01-17T16:48:22.764Z,0.55
2023-01-17T16:50:53.639Z,0.62
2023-01-17T16:53:25.305Z,0.27
2023-01-17T16:55:55.537Z,0.57
2023-01-17T16:58:22.993Z,0.38
2023-01-17T17:00:49.762Z,0.30
2023-01-17T17:03:18.376Z,0.42
2023-01-17T17:05:47.309Z,0.24
2023-01-17T17:08:15.476Z,0.22
2023-01-17T17:10:42.565Z,0.13
2023-01-17T17:13:09.399Z,0.28
2023-01-17T17:15:41.411Z,0.07
2023-01-17T17:18:12.879Z,0.36
2023-01-17T17:20:39.571Z,0.05
2023-01-17T17:23:06.241Z,-0.02
2023-01-17T17:25:33.273Z,0.21
2023-01-17T17:27:59.997Z,0.14
2023-01-17T17:30:27.314Z,0.19
2023-01-17T17:32:54.027Z,0.15
2023-01-17T17:35:20.756Z,0.25
2023-01-17T17:37:47.382Z,0.14
2023-01-17T17:40:14.197Z,0.07
2023-01-17T17:42:42.941Z,0.13
2023-01-17T17:45:10.111Z,0.10
2023-01-17T17:47:38.996Z,0.03
2023-01-17T17:50:05.940Z,0.21
2023-01-17T17:52:32.667Z,0.12
2023-01-17T17:54:59.345Z,-0.12
2023-01-17T17:57:25.985Z,-0.07
2023-01-17T17:59:56.287Z,-0.02
2023-01-17T18:02:22.973Z,-0.13
2023-01-17T18:04:49.695Z,-0.33
2023-01-17T18:07:16.392Z,-0.33
2023-01-17T18:09:43.186Z,-0.21
2023-01-17T18:12:09.874Z,-0.04
2023-01-17T18:14:36.481Z,0.03
2023-01-17T18:17:03.242Z,-0.21
2023-01-17T18:19:30.076Z,-0.11
2023-01-17T18:21:56.880Z,-0.20
2023-01-17T18:24:24.937Z,-0.09
2023-01-17T18:26:57.259Z,-0.26
2023-01-17T18:29:25.214Z,-0.17
2023-01-17T18:31:52.896Z,-0.07
2023-01-17T18:34:24.027Z,-0.32
2023-01-17T18:36:51.861Z,-0.39
2023-01-17T18:39:29.551Z,-0.20
2023-01-17T18:41:56.798Z,-0.22
2023-01-17T18:44:23.716Z,-0.42
2023-01-17T18:46:52.467Z,-0.24
2023-01-17T18:49:19.540Z,-0.66
2023-01-17T18:51:51.128Z,-0.38
2023-01-17T18:54:19.249Z,-0.64
2023-01-17T18:56:46.146Z,-0.52
2023-01-17T18:59:16.392Z,-0.53
2023-01-17T19:01:43.835Z,-0.52
2023-01-17T19:04:12.131Z,-0.56
2023-01-17T19:06:41.948Z,-0.64
2023-01-17T19:09:11.991Z,-0.69
2023-01-17T19:11:39.205Z,-0.67
2023-01-17T19:14:07.000Z,-0.80
2023-01-17T19:16:39.146Z,-0.67
2023-01-17T19:19:08.582Z,-0.69
2023-01-17T19:21:35.782Z,-1.04
2023-01-17T19:24:05.311Z,-0.78
2023-01-17T19:26:31.989Z,-0.97
2023-01-17T19:29:00.142Z,-0.95
2023-01-17T19:31:30.676Z,-0.83
2023-01-17T19:33:59.542Z,-0.86
2023-01-17T19:36:34.043Z,-1.07
2023-01-17T19:39:06.251Z,-1.00
2023-01-17T19:41:37.438Z,-1.57
2023-01-17T19:44:22.758Z,-1.00
2023-01-17T19:46:49.476Z,-1.33
2023-01-17T19:49:26.719Z,-1.24
2023-01-17T19:51:56.455Z,-1.24
2023-01-17T19:54:35.627Z,-1.35
2023-01-17T19:57:06.692Z,-1.29
2023-01-17T19:59:33.530Z,-1.42
2023-01-17T20:02:22.374Z,-1.66
2023-01-17T20:04:48.863Z,-1.38
2023-01-17T20:07:15.945Z,-1.17
2023-01-17T20:09:44.362Z,-0.72
2023-01-17T20:12:11.201Z,-0.87
2023-01-17T20:14:37.849Z,-0.84
2023-01-17T20:17:05.010Z,-0.85
2023-01-17T20:19:32.604Z,-0.95
2023-01-17T20:22:07.517Z,-0.78
2023-01-17T20:24:38.262Z,-0.82
2023-01-17T20:27:07.695Z,-1.19
2023-01-17T20:29:40.632Z,-0.98
2023-01-17T20:32:07.980Z,-1.21
2023-01-17T20:34:34.804Z,-1.02
2023-01-17T20:37:08.010Z,-1.13
2023-01-17T20:39:40.171Z,-1.43
2023-01-17T20:42:06.839Z,-1.58
2023-01-17T20:44:34.695Z,-1.74
2023-01-17T20:47:09.315Z,-1.79
2023-01-17T20:49:43.334Z,-1.64
2023-01-17T20:52:18.385Z,-1.90
2023-01-17T20:54:48.547Z,-1.53
2023-01-17T20:57:22.394Z,-1.68
2023-01-17T20:59:57.531Z,-1.98
2023-01-17T21:02:26.800Z,-1.84
2023-01-17T21:04:53.499Z,-2.05
2023-01-17T21:07:20.593Z,-1.98
2023-01-17T21:09:52.968Z,-1.84
2023-01-17T21:12:22.039Z,-1.90
2023-01-17T21:14:48.650Z,-1.97
2023-01-17T21:17:18.201Z,-2.24
2023-01-17T21:19:58.814Z,-2.06
2023-01-17T21:26:32.736Z,-2.41
2023-01-17T21:29:03.737Z,-2.24
2023-01-17T21:31:41.123Z,-2.12
2023-01-17T21:34:10.097Z,-2.32
2023-01-17T21:36:56.934Z,-2.28
2023-01-17T21:39:40.992Z,-2.10
2023-01-17T21:46:17.994Z,-1.90
2023-01-17T21:48:58.240Z,-2.50
2023-01-17T21:51:55.974Z,-2.14
2023-01-17T21:54:46.755Z,-2.29
2023-01-17T21:57:41.768Z,-2.50
2023-01-17T22:00:18.636Z,-2.00
2023-01-17T22:02:46.807Z,-2.33
2023-01-17T22:05:30.809Z,-2.37
2023-01-17T22:08:29.084Z,-2.11
2023-01-17T22:11:11.827Z,-2.71
2023-01-17T22:13:43.721Z,-2.62
2023-01-17T22:16:32.031Z,-2.13
2023-01-17T22:19:01.977Z,-2.65
2023-01-17T22:21:37.536Z,-2.87
2023-01-17T22:24:20.640Z,-2.54
2023-01-17T22:29:34.146Z,-2.56
2023-01-17T22:32:08.241Z,-2.47
2023-01-17T22:34:35.880Z,-2.28
2023-01-17T22:37:12.751Z,-2.66
2023-01-17T22:40:19.418Z,-2.50
2023-01-17T22:42:50.732Z,-2.54
2023-01-17T22:45:33.650Z,-2.28
2023-01-17T22:48:02.608Z,-2.70
2023-01-17T22:50:31.551Z,-2.87
2023-01-17T22:53:01.468Z,-2.46
2023-01-17T22:55:36.176Z,-2.66
2023-01-17T22:58:09.765Z,-2.51
2023-01-17T23:01:12.326Z,-2.44
2023-01-17T23:04:06.161Z,-2.52
2023-01-17T23:06:35.657Z,-2.87
2023-01-17T23:09:06.789Z,-2.53
2023-01-17T23:11:39.047Z,-2.43
2023-01-17T23:14:08.044Z,-2.72
2023-01-17T23:16:53.163Z,-2.55
2023-01-17T23:19:22.515Z,-2.58
2023-01-17T23:22:15.053Z,-2.69
2023-01-17T23:25:00.292Z,-2.66
2023-01-17T23:27:52.113Z,-2.66
2023-01-17T23:30:23.649Z,-2.55
2023-01-17T23:32:54.115Z,-2.66
2023-01-17T23:35:26.479Z,-2.47
2023-01-17T23:38:12.464Z,-2.64
2023-01-17T23:40:39.747Z,-2.48
2023-01-17T23:43:25.800Z,-2.47
2023-01-17T23:45:54.531Z,-2.46
2023-01-17T23:48:23.726Z,-2.73
2023-01-17T23:50:50.721Z,-2.64
2023-01-17T23:53:23.354Z,-2.45
2023-01-17T23:55:52.504Z,-2.83
2023-01-17T23:58:20.949Z,-2.93
